createdAt,value
2018-07-13T00:01:43.070Z,14.21
2018-07-13T00:04:45.453Z,14.13
2018-07-13T00:07:47.866Z,14.02
2018-07-13T00:10:50.287Z,13.99
2018-07-13T00:14:17.415Z,13.93
2018-07-13T00:17:19.904Z,13.85
2018-07-13T00:20:22.321Z,13.80
2018-07-13T00:23:24.725Z,13.64
2018-07-13T00:26:27.116Z,13.49
2018-07-13T00:29:29.417Z,13.50
2018-07-13T00:32:32.027Z,13.44
2018-07-13T00:35:34.541Z,13.47
2018-07-13T00:38:36.925Z,13.51
2018-07-13T00:41:39.388Z,13.52
2018-07-13T00:44:41.689Z,13.53
2018-07-13T00:47:44.135Z,13.47
2018-07-13T00:50:46.400Z,13.41
2018-07-13T00:53:48.766Z,13.35
2018-07-13T00:56:51.250Z,13.20
2018-07-13T00:59:53.686Z,13.13
2018-07-13T01:02:56.200Z,13.13
2018-07-13T01:05:58.893Z,13.12
2018-07-13T01:09:01.338Z,13.15
2018-07-13T01:12:03.881Z,13.16
2018-07-13T01:15:06.526Z,13.18
2018-07-13T01:18:08.974Z,13.21
2018-07-13T01:21:11.410Z,13.22
2018-07-13T01:24:13.913Z,13.13
2018-07-13T01:27:16.318Z,13.03
2018-07-13T01:30:18.795Z,12.99
2018-07-13T01:33:21.293Z,13.02
2018-07-13T01:36:23.772Z,13.08
2018-07-13T01:39:26.097Z,13.07
2018-07-13T01:42:28.458Z,13.04
2018-07-13T01:45:30.931Z,13.01
2018-07-13T01:48:33.444Z,13.02
2018-07-13T01:51:35.854Z,13.03
2018-07-13T01:54:38.193Z,13.02
2018-07-13T01:57:40.615Z,12.97
2018-07-13T02:00:42.893Z,12.81
2018-07-13T02:03:45.247Z,12.71
2018-07-13T02:06:47.855Z,12.65
2018-07-13T02:09:52.550Z,12.60
2018-07-13T02:12:54.950Z,12.56
2018-07-13T02:15:57.273Z,12.53
2018-07-13T02:18:59.618Z,12.45
2018-07-13T02:22:02.053Z,12.47
2018-07-13T02:25:04.845Z,12.48
2018-07-13T02:28:07.158Z,12.51
2018-07-13T02:31:09.552Z,12.50
2018-07-13T02:34:11.971Z,12.48
2018-07-13T02:37:14.344Z,12.43
2018-07-13T02:40:16.633Z,12.38
2018-07-13T02:43:19.168Z,12.39
2018-07-13T02:46:21.545Z,12.45
2018-07-13T02:49:24.002Z,12.46
2018-07-13T02:52:26.485Z,12.52
2018-07-13T02:55:32.518Z,12.58
2018-07-13T02:58:34.933Z,12.55
2018-07-13T03:01:38.282Z,12.55
2018-07-13T03:04:45.418Z,12.51
2018-07-13T03:07:48.955Z,12.34
2018-07-13T03:10:53.525Z,12.23
2018-07-13T03:13:56.225Z,12.12
2018-07-13T03:17:05.138Z,12.10
2018-07-13T03:20:08.942Z,12.13
2018-07-13T03:23:25.513Z,12.20
2018-07-13T03:26:28.036Z,12.18
2018-07-13T03:29:30.398Z,12.09
2018-07-13T03:32:32.821Z,12.08
2018-07-13T03:35:35.299Z,12.13
2018-07-13T03:38:37.823Z,12.20
2018-07-13T03:41:40.195Z,12.28
2018-07-13T03:44:42.737Z,12.37
2018-07-13T03:47:45.140Z,12.46
2018-07-13T03:50:48.508Z,12.54
2018-07-13T03:53:51.118Z,12.63
2018-07-13T03:56:53.675Z,12.71
2018-07-13T03:59:57.092Z,12.48
2018-07-13T04:02:59.623Z,12.54
2018-07-13T04:06:02.253Z,12.72
2018-07-13T04:09:07.177Z,12.94
2018-07-13T04:12:09.603Z,13.13
2018-07-13T04:15:11.965Z,13.26
2018-07-13T04:18:19.199Z,13.42
2018-07-13T04:21:21.593Z,13.62
2018-07-13T04:24:24.062Z,14.30
2018-07-13T04:27:26.622Z,15.58
2018-07-13T04:30:29.188Z,17.14
2018-07-13T04:33:31.794Z,18.85
2018-07-13T04:36:34.415Z,20.02
2018-07-13T04:39:36.880Z,21.01
2018-07-13T04:42:39.320Z,21.97
2018-07-13T04:45:41.946Z,22.74
2018-07-13T04:48:44.585Z,23.36
2018-07-13T04:51:47.123Z,23.97
2018-07-13T04:54:49.469Z,24.58
2018-07-13T04:57:52.046Z,24.95
2018-07-13T05:00:54.411Z,25.42
2018-07-13T05:03:56.954Z,25.96
2018-07-13T05:06:59.346Z,26.10
2018-07-13T05:10:01.956Z,26.64
2018-07-13T05:13:04.296Z,26.54
2018-07-13T05:16:06.739Z,26.96
2018-07-13T05:19:09.122Z,27.78
2018-07-13T05:22:11.659Z,27.83
2018-07-13T05:25:14.213Z,27.87
2018-07-13T05:28:16.792Z,25.56
2018-07-13T05:31:19.273Z,22.98
2018-07-13T05:34:21.866Z,21.09
2018-07-13T05:37:24.575Z,20.70
2018-07-13T05:40:27.172Z,21.98
2018-07-13T05:43:29.697Z,22.27
2018-07-13T05:46:32.229Z,22.22
2018-07-13T05:49:34.803Z,24.58
2018-07-13T05:52:37.399Z,26.39
2018-07-13T05:55:39.845Z,27.44
2018-07-13T05:58:42.374Z,28.77
2018-07-13T06:01:44.859Z,29.29
2018-07-13T06:04:47.337Z,29.65
2018-07-13T06:07:49.802Z,28.99
2018-07-13T06:10:52.349Z,28.48
2018-07-13T06:13:55.109Z,29.76
2018-07-13T06:16:57.609Z,30.88
2018-07-13T06:20:00.059Z,31.15
2018-07-13T06:23:02.511Z,30.62
2018-07-13T06:26:04.880Z,30.33
2018-07-13T06:29:07.466Z,28.81
2018-07-13T06:32:09.986Z,27.46
2018-07-13T06:35:12.372Z,29.03
2018-07-13T06:38:14.843Z,28.48
2018-07-13T06:41:17.316Z,27.23
2018-07-13T06:44:19.709Z,27.06
2018-07-13T06:47:22.201Z,26.40
2018-07-13T06:50:24.673Z,27.06
2018-07-13T06:53:27.085Z,28.23
2018-07-13T06:56:29.840Z,28.78
2018-07-13T06:59:32.451Z,28.44
2018-07-13T07:02:40.258Z,29.55
2018-07-13T07:06:15.610Z,29.08
2018-07-13T07:09:18.248Z,29.73
2018-07-13T07:14:31.234Z,31.70
2018-07-13T07:17:34.611Z,31.32
2018-07-13T07:20:42.431Z,31.22
2018-07-13T07:23:44.760Z,31.53
2018-07-13T07:26:47.184Z,31.96
2018-07-13T07:29:49.858Z,29.63
2018-07-13T07:32:52.312Z,28.82
2018-07-13T07:35:54.593Z,28.71
2018-07-13T07:38:58.962Z,30.13
2018-07-13T07:42:05.738Z,30.62
2018-07-13T07:45:08.182Z,29.86
2018-07-13T07:48:10.472Z,29.81
2018-07-13T07:51:16.404Z,30.62
2018-07-13T07:54:24.111Z,31.17
2018-07-13T07:57:26.655Z,31.68
2018-07-13T08:00:29.186Z,30.41
2018-07-13T08:03:31.715Z,30.41
2018-07-13T08:06:34.397Z,30.48
2018-07-13T08:09:37.006Z,30.15
2018-07-13T08:12:41.568Z,30.35
2018-07-13T08:15:47.265Z,29.44
2018-07-13T08:18:51.848Z,27.87
2018-07-13T08:21:54.463Z,27.55
2018-07-13T08:24:58.066Z,26.88
2018-07-13T08:28:06.991Z,26.55
2018-07-13T08:31:10.765Z,26.97
2018-07-13T08:34:14.384Z,26.90
2018-07-13T08:37:16.661Z,26.62
2018-07-13T08:40:19.024Z,25.82
2018-07-13T08:43:21.341Z,26.17
2018-07-13T08:46:23.817Z,27.22
2018-07-13T08:49:28.263Z,26.91
2018-07-13T08:52:30.627Z,26.82
2018-07-13T08:55:33.024Z,27.04
2018-07-13T08:58:43.115Z,28.08
2018-07-13T09:01:45.637Z,28.09
2018-07-13T09:04:48.003Z,27.75
2018-07-13T09:07:50.295Z,27.49
2018-07-13T09:10:52.761Z,26.79
2018-07-13T09:14:02.242Z,27.37
2018-07-13T09:17:04.625Z,28.10
2018-07-13T09:20:11.835Z,28.23
2018-07-13T09:23:14.227Z,27.52
2018-07-13T09:26:17.565Z,26.85
2018-07-13T09:29:20.250Z,27.15
2018-07-13T09:32:22.775Z,28.31
2018-07-13T09:35:28.443Z,28.05
2018-07-13T09:38:30.938Z,26.99
2018-07-13T09:41:33.229Z,26.83
2018-07-13T09:44:35.557Z,27.88
2018-07-13T09:47:37.937Z,26.51
2018-07-13T09:50:40.250Z,25.97
2018-07-13T09:53:46.339Z,26.99
2018-07-13T09:56:50.174Z,27.08
2018-07-13T09:59:52.462Z,27.55
2018-07-13T10:02:54.893Z,27.15
2018-07-13T10:05:58.550Z,26.58
2018-07-13T10:09:01.232Z,27.08
2018-07-13T10:12:03.768Z,27.35
2018-07-13T10:15:06.561Z,27.40
2018-07-13T10:18:09.330Z,27.25
2018-07-13T10:21:13.004Z,27.74
2018-07-13T10:24:16.208Z,28.76
2018-07-13T10:27:18.956Z,29.11
2018-07-13T10:30:21.644Z,29.08
2018-07-13T10:33:24.390Z,28.08
2018-07-13T10:36:27.169Z,27.83
2018-07-13T10:39:29.830Z,28.84
2018-07-13T10:42:32.603Z,29.25
2018-07-13T10:45:35.276Z,30.04
2018-07-13T10:48:38.834Z,31.18
2018-07-13T10:51:41.436Z,30.70
2018-07-13T10:54:47.820Z,27.63
2018-07-13T10:57:50.371Z,26.99
2018-07-13T11:00:53.124Z,26.89
2018-07-13T11:03:57.869Z,26.82
2018-07-13T11:07:00.511Z,26.87
2018-07-13T11:10:03.191Z,27.63
2018-07-13T11:13:05.832Z,28.56
2018-07-13T11:16:08.455Z,29.52
2018-07-13T11:19:10.981Z,29.60
2018-07-13T11:22:13.638Z,30.28
2018-07-13T11:25:16.245Z,30.97
2018-07-13T11:28:19.217Z,30.22
2018-07-13T11:31:21.740Z,28.77
2018-07-13T11:34:24.382Z,27.85
2018-07-13T11:37:27.996Z,27.51
2018-07-13T11:40:30.463Z,27.57
2018-07-13T11:43:33.194Z,27.50
2018-07-13T11:46:36.012Z,27.93
2018-07-13T11:49:38.487Z,27.95
2018-07-13T11:52:41.172Z,28.00
2018-07-13T11:55:43.887Z,28.01
2018-07-13T11:58:46.542Z,27.84
2018-07-13T12:01:50.316Z,28.25
2018-07-13T12:04:52.957Z,28.42
2018-07-13T12:07:55.593Z,28.70
2018-07-13T12:10:57.990Z,28.36
2018-07-13T12:14:00.319Z,29.06
2018-07-13T12:17:02.928Z,29.57
2018-07-13T12:20:05.676Z,28.77
2018-07-13T12:23:08.434Z,27.72
2018-07-13T12:26:12.108Z,27.73
2018-07-13T12:29:14.749Z,28.01
2018-07-13T12:32:17.432Z,28.36
2018-07-13T12:35:19.681Z,28.42
2018-07-13T12:38:25.513Z,28.25
2018-07-13T12:41:29.903Z,28.34
2018-07-13T12:44:32.242Z,28.25
2018-07-13T12:47:34.631Z,28.98
2018-07-13T12:50:38.324Z,28.05
2018-07-13T12:53:40.880Z,27.58
2018-07-13T12:56:43.487Z,27.59
2018-07-13T12:59:46.204Z,28.30
2018-07-13T13:03:19.667Z,29.24
2018-07-13T13:06:26.032Z,30.41
2018-07-13T13:09:28.578Z,31.60
2018-07-13T13:12:32.454Z,30.72
2018-07-13T13:15:36.227Z,29.48
2018-07-13T13:18:39.870Z,28.99
2018-07-13T13:21:42.610Z,28.08
2018-07-13T13:24:45.223Z,27.88
2018-07-13T13:27:48.066Z,27.99
2018-07-13T13:30:50.606Z,28.42
2018-07-13T13:33:53.205Z,28.45
2018-07-13T13:36:56.891Z,29.00
2018-07-13T13:39:59.212Z,29.20
2018-07-13T13:43:01.601Z,27.64
2018-07-13T13:46:05.047Z,28.17
2018-07-13T13:49:07.551Z,29.24
2018-07-13T13:52:10.312Z,29.70
2018-07-13T13:55:14.015Z,29.72
2018-07-13T13:58:16.688Z,29.13
2018-07-13T14:01:19.244Z,28.83
2018-07-13T14:04:21.723Z,28.31
2018-07-13T14:07:24.516Z,27.77
2018-07-13T14:10:27.372Z,27.88
2018-07-13T14:13:29.915Z,28.13
2018-07-13T14:16:32.644Z,29.31
2018-07-13T14:19:35.203Z,29.47
2018-07-13T14:22:37.836Z,29.12
2018-07-13T14:25:40.566Z,28.35
2018-07-13T14:28:43.236Z,28.77
2018-07-13T14:31:45.902Z,29.11
2018-07-13T14:34:48.516Z,29.15
2018-07-13T14:37:51.538Z,29.08
2018-07-13T14:40:54.378Z,28.24
2018-07-13T14:43:57.036Z,27.94
2018-07-13T14:46:59.875Z,27.76
2018-07-13T14:50:02.232Z,27.55
2018-07-13T14:53:04.828Z,27.38
2018-07-13T14:56:07.420Z,27.15
2018-07-13T14:59:10.199Z,27.57
2018-07-13T15:02:12.799Z,27.43
2018-07-13T15:05:15.492Z,27.22
2018-07-13T15:08:18.195Z,27.28
2018-07-13T15:11:21.737Z,27.63
2018-07-13T15:14:24.534Z,28.65
2018-07-13T15:17:26.998Z,28.62
2018-07-13T15:20:29.697Z,28.45
2018-07-13T15:23:32.385Z,28.25
2018-07-13T15:26:35.061Z,28.09
2018-07-13T15:29:37.755Z,27.59
2018-07-13T15:32:40.403Z,27.38
2018-07-13T15:35:43.078Z,27.31
2018-07-13T15:38:45.771Z,27.00
2018-07-13T15:41:48.275Z,27.22
2018-07-13T15:44:50.825Z,27.18
2018-07-13T15:47:53.495Z,27.34
2018-07-13T15:50:55.881Z,27.00
2018-07-13T15:53:58.246Z,27.21
2018-07-13T15:57:01.075Z,27.12
2018-07-13T16:00:07.306Z,27.34
2018-07-13T16:03:09.629Z,26.70
2018-07-13T16:06:12.049Z,26.55
2018-07-13T16:09:15.043Z,26.72
2018-07-13T16:12:19.459Z,26.95
2018-07-13T16:15:21.775Z,26.94
2018-07-13T16:18:24.132Z,26.86
2018-07-13T16:21:26.457Z,27.01
2018-07-13T16:24:28.820Z,27.20
2018-07-13T16:27:31.066Z,27.67
2018-07-13T16:30:52.300Z,28.43
2018-07-13T16:33:58.719Z,28.10
2018-07-13T16:37:02.121Z,27.51
2018-07-13T16:40:04.529Z,27.24
2018-07-13T16:43:06.848Z,26.86
2018-07-13T16:46:09.327Z,26.49
2018-07-13T16:49:12.997Z,26.18
2018-07-13T16:52:15.574Z,26.02
2018-07-13T16:55:18.210Z,25.95
2018-07-13T16:58:20.978Z,25.99
2018-07-13T17:01:23.269Z,26.00
2018-07-13T17:04:25.636Z,26.09
2018-07-13T17:07:35.390Z,26.01
2018-07-13T17:10:37.800Z,25.81
2018-07-13T17:13:40.169Z,25.71
2018-07-13T17:16:46.257Z,25.74
2018-07-13T17:19:48.866Z,25.67
2018-07-13T17:22:51.226Z,25.56
2018-07-13T17:25:53.586Z,25.47
2018-07-13T17:28:56.023Z,25.28
2018-07-13T17:32:00.633Z,25.39
2018-07-13T17:35:04.315Z,25.31
2018-07-13T17:38:07.040Z,25.24
2018-07-13T17:41:11.629Z,25.23
2018-07-13T17:44:15.086Z,25.09
2018-07-13T17:47:21.343Z,24.97
2018-07-13T17:50:23.687Z,24.94
2018-07-13T17:53:26.061Z,24.82
2018-07-13T17:56:28.389Z,24.87
2018-07-13T17:59:32.704Z,24.74
2018-07-13T18:02:35.568Z,24.75
2018-07-13T18:05:37.944Z,24.62
2018-07-13T18:08:40.505Z,24.49
2018-07-13T18:11:42.982Z,24.36
2018-07-13T18:14:45.416Z,24.18
2018-07-13T18:17:48.001Z,24.07
2018-07-13T18:20:50.769Z,23.94
2018-07-13T18:24:00.850Z,23.79
2018-07-13T18:27:03.602Z,23.68
2018-07-13T18:30:06.295Z,23.61
2018-07-13T18:33:08.969Z,23.63
2018-07-13T18:36:12.040Z,23.63
2018-07-13T18:39:14.381Z,23.63
2018-07-13T18:42:16.733Z,23.56
2018-07-13T18:45:19.303Z,23.52
2018-07-13T18:48:22.020Z,23.49
2018-07-13T18:51:24.734Z,23.43
2018-07-13T18:54:28.061Z,23.31
2018-07-13T19:00:32.703Z,23.03
2018-07-13T19:03:35.322Z,22.96
2018-07-13T19:06:37.891Z,23.03
2018-07-13T19:09:40.438Z,23.05
2018-07-13T19:12:43.030Z,22.95
2018-07-13T19:15:45.573Z,22.86
2018-07-13T19:18:49.078Z,22.66
2018-07-13T19:21:51.447Z,22.46
2018-07-13T19:24:54.047Z,22.22
2018-07-13T19:27:56.579Z,21.91
2018-07-13T19:30:59.304Z,21.50
2018-07-13T19:34:01.803Z,21.16
2018-07-13T19:37:04.442Z,20.81
2018-07-13T19:40:07.099Z,20.46
2018-07-13T19:43:09.551Z,20.11
2018-07-13T19:46:11.935Z,19.84
2018-07-13T19:49:14.464Z,19.58
2018-07-13T19:52:17.052Z,19.39
2018-07-13T19:55:19.751Z,19.17
2018-07-13T19:58:22.302Z,18.97
2018-07-13T20:02:27.561Z,18.82
2018-07-13T20:05:30.009Z,18.63
2018-07-13T20:08:32.574Z,18.57
2018-07-13T20:11:35.232Z,18.51
2018-07-13T20:14:38.000Z,18.49
2018-07-13T20:17:40.676Z,18.47
2018-07-13T20:20:43.314Z,18.49
2018-07-13T20:23:45.842Z,18.42
2018-07-13T20:26:48.430Z,18.38
2018-07-13T20:29:51.094Z,18.31
2018-07-13T20:32:54.770Z,18.22
2018-07-13T20:35:57.351Z,18.15
2018-07-13T20:39:01.002Z,18.04
2018-07-13T20:42:03.661Z,18.00
2018-07-13T20:45:06.263Z,17.86
2018-07-13T20:48:10.775Z,17.72
2018-07-13T20:51:13.434Z,17.58
2018-07-13T20:54:16.024Z,17.49
2018-07-13T20:57:18.720Z,17.33
2018-07-13T21:01:24.068Z,17.20
2018-07-13T21:04:26.728Z,17.35
2018-07-13T21:07:29.308Z,17.42
2018-07-13T21:10:31.945Z,17.29
2018-07-13T21:13:34.550Z,16.92
2018-07-13T21:16:37.285Z,16.73
2018-07-13T21:19:39.895Z,16.54
2018-07-13T21:22:42.516Z,16.46
2018-07-13T21:25:45.121Z,16.32
2018-07-13T21:28:47.985Z,16.26
2018-07-13T21:31:50.545Z,16.19
2018-07-13T21:34:53.299Z,16.09
2018-07-13T21:37:55.914Z,16.04
2018-07-13T21:40:58.456Z,16.02
2018-07-13T21:44:01.060Z,16.03
2018-07-13T21:47:03.607Z,16.03
2018-07-13T21:50:06.488Z,15.97
2018-07-13T21:53:08.939Z,15.83
2018-07-13T21:56:11.554Z,15.81
2018-07-13T21:59:14.173Z,15.83
2018-07-13T22:02:16.893Z,15.84
2018-07-13T22:05:19.517Z,15.90
2018-07-13T22:08:22.027Z,15.91
2018-07-13T22:11:24.628Z,15.88
2018-07-13T22:14:27.174Z,15.78
2018-07-13T22:17:29.886Z,15.58
2018-07-13T22:20:32.555Z,15.42
2018-07-13T22:23:35.947Z,15.27
2018-07-13T22:26:38.437Z,15.17
2018-07-13T22:29:41.063Z,15.12
2018-07-13T22:32:44.346Z,15.14
2018-07-13T22:35:46.917Z,15.14
2018-07-13T22:38:49.205Z,15.11
2018-07-13T22:41:51.699Z,15.01
2018-07-13T22:44:54.129Z,14.93
2018-07-13T22:47:57.051Z,14.88
2018-07-13T22:50:59.801Z,14.91
2018-07-13T22:54:02.386Z,14.97
2018-07-13T22:57:04.893Z,15.06
2018-07-13T23:00:07.791Z,15.12
2018-07-13T23:03:10.193Z,15.15
2018-07-13T23:06:12.736Z,15.12
2018-07-13T23:09:15.594Z,15.13
2018-07-13T23:12:18.284Z,15.22
2018-07-13T23:15:21.837Z,15.28
2018-07-13T23:18:25.213Z,15.32
2018-07-13T23:21:28.654Z,15.27
2018-07-13T23:24:32.166Z,15.20
2018-07-13T23:27:36.134Z,15.05
2018-07-13T23:30:39.566Z,14.87
2018-07-13T23:33:42.982Z,14.73
2018-07-13T23:36:46.390Z,14.62
2018-07-13T23:39:49.740Z,14.41
2018-07-13T23:42:52.953Z,14.33
2018-07-13T23:45:56.220Z,14.31
2018-07-13T23:48:59.394Z,14.37
2018-07-13T23:52:02.194Z,14.50
2018-07-13T23:55:04.951Z,14.54
2018-07-13T23:58:07.579Z,14.55
